PWSweather.com
Personal Weather Stations
Station Observations
265NC
Va2kh, Stcasimir, QC G0A 3L0

Va2khStcasimir, QC G0A 3L0

Lat: 46.65839, Lon: -72.13905

Elevation: 105

Station Type: National Geographic 265NC

http://www.qsl.net/va2kh

High Low Average
Temperature 18.0°F-7.8°F -12.3°F-24.6°F -0.4°F-18.0°F
Dew Point -0.7°F-18.2°F -15.8°F-26.6°F -8.8°F-22.7°F
Winds 2.7 mph N4.3 mph N Calm Calm 0.4 mph 0.6 mph
Wind Gusts 7.6 mph12.2 mph -- 2.7 mph4.3 mph
Humidity 88% 41% 68%
Pressure 30.32 in1026.80 in 30.12 in1020.00 in -
Precipitation 0.00 in0.00 in - -
Hour Temp Dew Point Humidity Winds Wind Gusts Pressure Precip Precip Rate Daily Precip Total
12:00 AM -0.4°F-18.0°C -6.0°F-21.1°C 76% 0.3 mph NNW0.5 kmh NNW 2.2 mph3.5 kmh 30.12 in1020.0 mb 0.00 in0.0 mm 0.00 in/hr0.0 mm/hr 0.00 in0.0 mm
12:15 AM -2.4°F-19.1°C -7.9°F-22.2°C 76% Calm Calm 2.2 mph3.5 kmh 30.12 in1020.0 mb 0.00 in0.0 mm 0.00 in/hr0.0 mm/hr 0.00 in0.0 mm
12:30 AM -3.6°F-19.8°C -8.9°F-22.7°C 77% 0.1 mph W0.2 kmh W 3.8 mph6.1 kmh 30.12 in1020.0 mb 0.00 in0.0 mm 0.00 in/hr0.0 mm/hr 0.00 in0.0 mm
12:45 AM -5.1°F-20.6°C -10.0°F-23.3°C 78% 0.3 mph W0.5 kmh W 3.1 mph5.0 kmh 30.14 in1020.7 mb 0.00 in0.0 mm 0.00 in/hr0.0 mm/hr 0.00 in0.0 mm
01:00 AM -4.9°F-20.5°C -9.6°F-23.1°C 79% 0.3 mph SW0.5 kmh SW 3.8 mph6.1 kmh 30.14 in1020.7 mb 0.00 in0.0 mm 0.00 in/hr0.0 mm/hr 0.00 in0.0 mm
01:15 AM -4.2°F-20.1°C -8.4°F-22.4°C 81% Calm Calm 1.6 mph2.6 kmh 30.14 in1020.7 mb 0.00 in0.0 mm 0.00 in/hr0.0 mm/hr 0.00 in0.0 mm
01:30 AM -5.8°F-21.0°C -10.2°F-23.4°C 80% Calm Calm 2.2 mph3.5 kmh 30.14 in1020.7 mb 0.00 in0.0 mm 0.00 in/hr0.0 mm/hr 0.00 in0.0 mm
01:45 AM -5.8°F-21.0°C -10.0°F-23.3°C 81% Calm Calm 2.2 mph3.5 kmh 30.15 in1021.0 mb 0.00 in0.0 mm 0.00 in/hr0.0 mm/hr 0.00 in0.0 mm
02:00 AM -5.3°F-20.7°C -9.2°F-22.9°C 82% 0.2 mph NW0.3 kmh NW 3.8 mph6.1 kmh 30.15 in1021.0 mb 0.00 in0.0 mm 0.00 in/hr0.0 mm/hr 0.00 in0.0 mm
02:15 AM -5.3°F-20.7°C -9.7°F-23.2°C 80% 0.1 mph NW0.2 kmh NW 1.6 mph2.6 kmh 30.15 in1021.0 mb 0.00 in0.0 mm 0.00 in/hr0.0 mm/hr 0.00 in0.0 mm
02:30 AM -4.2°F-20.1°C -8.4°F-22.4°C 81% Calm Calm 2.2 mph3.5 kmh 30.16 in1021.3 mb 0.00 in0.0 mm 0.00 in/hr0.0 mm/hr 0.00 in0.0 mm
02:45 AM -3.5°F-19.7°C -8.2°F-22.3°C 79% 0.6 mph N1.0 kmh N 3.1 mph5.0 kmh 30.16 in1021.3 mb 0.00 in0.0 mm 0.00 in/hr0.0 mm/hr 0.00 in0.0 mm
03:00 AM -4.2°F-20.1°C -9.2°F-22.9°C 78% 0.1 mph NW0.2 kmh NW 3.1 mph5.0 kmh 30.16 in1021.3 mb 0.00 in0.0 mm 0.00 in/hr0.0 mm/hr 0.00 in0.0 mm
03:15 AM -6.0°F-21.1°C -11.2°F-24.0°C 77% Calm Calm 0.7 mph1.1 kmh 30.16 in1021.3 mb 0.00 in0.0 mm 0.00 in/hr0.0 mm/hr 0.00 in0.0 mm
03:30 AM -4.9°F-20.5°C -9.6°F-23.1°C 79% 0.6 mph N1.0 kmh N 3.8 mph6.1 kmh 30.16 in1021.3 mb 0.00 in0.0 mm 0.00 in/hr0.0 mm/hr 0.00 in0.0 mm
03:45 AM -4.2°F-20.1°C -9.2°F-22.9°C 78% 1.3 mph N2.1 kmh N 3.8 mph6.1 kmh 30.16 in1021.3 mb 0.00 in0.0 mm 0.00 in/hr0.0 mm/hr 0.00 in0.0 mm
04:00 AM -3.8°F-19.9°C -9.1°F-22.8°C 77% 2.1 mph N3.4 kmh N 7.6 mph12.2 kmh 30.16 in1021.3 mb 0.00 in0.0 mm 0.00 in/hr0.0 mm/hr 0.00 in0.0 mm
04:15 AM -3.6°F-19.8°C -9.2°F-22.9°C 76% 2.7 mph N4.3 kmh N 7.6 mph12.2 kmh 30.16 in1021.3 mb 0.00 in0.0 mm 0.00 in/hr0.0 mm/hr 0.00 in0.0 mm
04:30 AM -3.8°F-19.9°C -9.3°F-22.9°C 76% 1.4 mph N2.3 kmh N 6.0 mph9.7 kmh 30.16 in1021.3 mb 0.00 in0.0 mm 0.00 in/hr0.0 mm/hr 0.00 in0.0 mm
04:45 AM -5.1°F-20.6°C -10.8°F-23.8°C 75% 0.6 mph NW1.0 kmh NW 4.5 mph7.2 kmh 30.17 in1021.7 mb 0.00 in0.0 mm 0.00 in/hr0.0 mm/hr 0.00 in0.0 mm
05:00 AM -8.0°F-22.2°C -13.9°F-25.5°C 74% 0.4 mph WNW0.6 kmh WNW 3.1 mph5.0 kmh 30.18 in1022.0 mb 0.00 in0.0 mm 0.00 in/hr0.0 mm/hr 0.00 in0.0 mm
05:15 AM -8.9°F-22.7°C -14.2°F-25.7°C 76% 0.2 mph WSW0.3 kmh WSW 3.1 mph5.0 kmh 30.19 in1022.4 mb 0.00 in0.0 mm 0.00 in/hr0.0 mm/hr 0.00 in0.0 mm
05:30 AM -9.6°F-23.1°C -14.6°F-25.9°C 77% 0.3 mph SW0.5 kmh SW 3.1 mph5.0 kmh 30.20 in1022.7 mb 0.00 in0.0 mm 0.00 in/hr0.0 mm/hr 0.00 in0.0 mm
05:45 AM -9.9°F-23.3°C -14.5°F-25.8°C 79% 0.1 mph SW0.2 kmh SW 2.2 mph3.5 kmh 30.20 in1022.7 mb 0.00 in0.0 mm 0.00 in/hr0.0 mm/hr 0.00 in0.0 mm
06:00 AM -11.0°F-23.9°C -15.3°F-26.3°C 80% Calm Calm 1.6 mph2.6 kmh 30.21 in1023.0 mb 0.00 in0.0 mm 0.00 in/hr0.0 mm/hr 0.00 in0.0 mm
06:15 AM -11.4°F-24.1°C -15.4°F-26.3°C 81% Calm Calm 0.7 mph1.1 kmh 30.22 in1023.4 mb 0.00 in0.0 mm 0.00 in/hr0.0 mm/hr 0.00 in0.0 mm
06:30 AM -11.0°F-23.9°C -14.8°F-26.0°C 82% 0.3 mph SW0.5 kmh SW 2.2 mph3.5 kmh 30.23 in1023.7 mb 0.00 in0.0 mm 0.00 in/hr0.0 mm/hr 0.00 in0.0 mm
06:45 AM -10.7°F-23.7°C -14.2°F-25.7°C 83% Calm Calm 1.6 mph2.6 kmh 30.24 in1024.0 mb 0.00 in0.0 mm 0.00 in/hr0.0 mm/hr 0.00 in0.0 mm
07:00 AM -11.7°F-24.3°C -15.3°F-26.3°C 83% 0.5 mph WSW0.8 kmh WSW 2.2 mph3.5 kmh 30.25 in1024.4 mb 0.00 in0.0 mm 0.00 in/hr0.0 mm/hr 0.00 in0.0 mm
07:15 AM -12.3°F-24.6°C -15.8°F-26.6°C 83% 0.2 mph NNW0.3 kmh NNW 1.6 mph2.6 kmh 30.25 in1024.4 mb 0.00 in0.0 mm 0.00 in/hr0.0 mm/hr 0.00 in0.0 mm
07:30 AM -11.2°F-24.0°C -14.5°F-25.8°C 84% 0.2 mph NNW0.3 kmh NNW 3.1 mph5.0 kmh 30.26 in1024.7 mb 0.00 in0.0 mm 0.00 in/hr0.0 mm/hr 0.00 in0.0 mm
07:45 AM -10.7°F-23.7°C -14.5°F-25.8°C 82% 0.4 mph WSW0.6 kmh WSW 2.2 mph3.5 kmh 30.27 in1025.1 mb 0.00 in0.0 mm 0.00 in/hr0.0 mm/hr 0.00 in0.0 mm
08:00 AM -6.0°F-21.1°C -9.9°F-23.3°C 82% Calm Calm -- 30.28 in1025.4 mb 0.00 in0.0 mm 0.00 in/hr0.0 mm/hr 0.00 in0.0 mm
08:15 AM -4.0°F-20.0°C -9.5°F-23.1°C 76% 0.1 mph NNW0.2 kmh NNW 2.2 mph3.5 kmh 30.27 in1025.1 mb 0.00 in0.0 mm 0.00 in/hr0.0 mm/hr 0.00 in0.0 mm
08:30 AM -6.7°F-21.5°C -12.9°F-24.9°C 73% 0.1 mph S0.2 kmh S 1.6 mph2.6 kmh 30.29 in1025.7 mb 0.00 in0.0 mm 0.00 in/hr0.0 mm/hr 0.00 in0.0 mm
08:45 AM -3.3°F-19.6°C -9.6°F-23.1°C 73% 0.1 mph NW0.2 kmh NW 2.2 mph3.5 kmh 30.29 in1025.7 mb 0.00 in0.0 mm 0.00 in/hr0.0 mm/hr 0.00 in0.0 mm
09:00 AM 2.3°F-16.5°C -5.7°F-20.9°C 68% 0.3 mph NNE0.5 kmh NNE 2.2 mph3.5 kmh 30.29 in1025.7 mb 0.00 in0.0 mm 0.00 in/hr0.0 mm/hr 0.00 in0.0 mm
09:15 AM 3.6°F-15.8°C -6.8°F-21.6°C 61% Calm Calm 3.1 mph5.0 kmh 30.29 in1025.7 mb 0.00 in0.0 mm 0.00 in/hr0.0 mm/hr 0.00 in0.0 mm
09:30 AM 5.0°F-15.0°C -6.4°F-21.3°C 58% 0.7 mph NE1.1 kmh NE 3.1 mph5.0 kmh 30.29 in1025.7 mb 0.00 in0.0 mm 0.00 in/hr0.0 mm/hr 0.00 in0.0 mm
09:45 AM 6.1°F-14.4°C -6.9°F-21.6°C 54% 0.8 mph N1.3 kmh N 3.8 mph6.1 kmh 30.29 in1025.7 mb 0.00 in0.0 mm 0.00 in/hr0.0 mm/hr 0.00 in0.0 mm
10:00 AM 5.5°F-14.7°C -7.8°F-22.1°C 53% 1.5 mph NNE2.4 kmh NNE 3.8 mph6.1 kmh 30.29 in1025.7 mb 0.00 in0.0 mm 0.00 in/hr0.0 mm/hr 0.00 in0.0 mm
10:15 AM 5.9°F-14.5°C -7.8°F-22.1°C 52% 1.2 mph NNE1.9 kmh NNE 3.8 mph6.1 kmh 30.30 in1026.1 mb 0.00 in0.0 mm 0.00 in/hr0.0 mm/hr 0.00 in0.0 mm
10:30 AM 5.4°F-14.8°C -8.7°F-22.6°C 51% 2.2 mph NE3.5 kmh NE 6.0 mph9.7 kmh 30.30 in1026.1 mb 0.00 in0.0 mm 0.00 in/hr0.0 mm/hr 0.00 in0.0 mm
10:45 AM 7.2°F-13.8°C -7.9°F-22.2°C 49% 0.9 mph N1.4 kmh N 3.8 mph6.1 kmh 30.29 in1025.7 mb 0.00 in0.0 mm 0.00 in/hr0.0 mm/hr 0.00 in0.0 mm
11:00 AM 5.4°F-14.8°C -9.1°F-22.8°C 50% 0.3 mph NW0.5 kmh NW 3.1 mph5.0 kmh 30.30 in1026.1 mb 0.00 in0.0 mm 0.00 in/hr0.0 mm/hr 0.00 in0.0 mm
11:15 AM 7.5°F-13.6°C -7.1°F-21.7°C 50% 0.4 mph NE0.6 kmh NE 3.1 mph5.0 kmh 30.29 in1025.7 mb 0.00 in0.0 mm 0.00 in/hr0.0 mm/hr 0.00 in0.0 mm
11:30 AM 9.0°F-12.8°C -6.2°F-21.2°C 49% 0.3 mph SSW0.5 kmh SSW 3.8 mph6.1 kmh 30.29 in1025.7 mb 0.00 in0.0 mm 0.00 in/hr0.0 mm/hr 0.00 in0.0 mm
11:45 AM 5.4°F-14.8°C -9.5°F-23.1°C 49% 1.3 mph WNW2.1 kmh WNW 3.8 mph6.1 kmh 30.29 in1025.7 mb 0.00 in0.0 mm 0.00 in/hr0.0 mm/hr 0.00 in0.0 mm
12:00 PM 6.6°F-14.1°C -8.4°F-22.4°C 49% 0.3 mph NW0.5 kmh NW 3.1 mph5.0 kmh 30.28 in1025.4 mb 0.00 in0.0 mm 0.00 in/hr0.0 mm/hr 0.00 in0.0 mm
12:15 PM 6.4°F-14.2°C -8.1°F-22.3°C 50% 0.6 mph NW1.0 kmh NW 3.1 mph5.0 kmh 30.28 in1025.4 mb 0.00 in0.0 mm 0.00 in/hr0.0 mm/hr 0.00 in0.0 mm
12:30 PM 5.5°F-14.7°C -9.0°F-22.8°C 50% 0.4 mph NW0.6 kmh NW 3.1 mph5.0 kmh 30.28 in1025.4 mb 0.00 in0.0 mm 0.00 in/hr0.0 mm/hr 0.00 in0.0 mm
12:45 PM 7.2°F-13.8°C -7.5°F-21.9°C 50% 0.3 mph NW0.5 kmh NW 3.1 mph5.0 kmh 30.27 in1025.1 mb 0.00 in0.0 mm 0.00 in/hr0.0 mm/hr 0.00 in0.0 mm
01:00 PM 7.7°F-13.5°C -7.0°F-21.7°C 50% 0.2 mph NNW0.3 kmh NNW 3.1 mph5.0 kmh 30.27 in1025.1 mb 0.00 in0.0 mm 0.00 in/hr0.0 mm/hr 0.00 in0.0 mm
01:15 PM 11.1°F-11.6°C -4.6°F-20.3°C 48% 0.1 mph NNW0.2 kmh NNW 2.2 mph3.5 kmh 30.27 in1025.1 mb 0.00 in0.0 mm 0.00 in/hr0.0 mm/hr 0.00 in0.0 mm
01:30 PM 11.5°F-11.4°C -5.6°F-20.9°C 45% 0.3 mph N0.5 kmh N 3.8 mph6.1 kmh 30.27 in1025.1 mb 0.00 in0.0 mm 0.00 in/hr0.0 mm/hr 0.00 in0.0 mm
01:45 PM 11.5°F-11.4°C -6.1°F-21.2°C 44% 0.2 mph WNW0.3 kmh WNW 3.8 mph6.1 kmh 30.27 in1025.1 mb 0.00 in0.0 mm 0.00 in/hr0.0 mm/hr 0.00 in0.0 mm
02:00 PM 12.0°F-11.1°C -6.1°F-21.2°C 43% Calm Calm 2.2 mph3.5 kmh 30.27 in1025.1 mb 0.00 in0.0 mm 0.00 in/hr0.0 mm/hr 0.00 in0.0 mm
02:15 PM 12.6°F-10.8°C -6.1°F-21.2°C 42% 0.3 mph NW0.5 kmh NW 3.1 mph5.0 kmh 30.27 in1025.1 mb 0.00 in0.0 mm 0.00 in/hr0.0 mm/hr 0.00 in0.0 mm
02:30 PM 14.0°F-10.0°C -4.8°F-20.4°C 42% 0.1 mph NW0.2 kmh NW 2.2 mph3.5 kmh 30.26 in1024.7 mb 0.00 in0.0 mm 0.00 in/hr0.0 mm/hr 0.00 in0.0 mm
02:45 PM 13.1°F-10.5°C -6.1°F-21.2°C 41% 0.2 mph WNW0.3 kmh WNW 2.2 mph3.5 kmh 30.26 in1024.7 mb 0.00 in0.0 mm 0.00 in/hr0.0 mm/hr 0.00 in0.0 mm
03:00 PM 15.1°F-9.4°C -4.3°F-20.2°C 41% Calm Calm 2.2 mph3.5 kmh 30.25 in1024.4 mb 0.00 in0.0 mm 0.00 in/hr0.0 mm/hr 0.00 in0.0 mm
03:15 PM 15.4°F-9.2°C -4.0°F-20.0°C 41% 0.6 mph ENE1.0 kmh ENE 3.1 mph5.0 kmh 30.25 in1024.4 mb 0.00 in0.0 mm 0.00 in/hr0.0 mm/hr 0.00 in0.0 mm
03:30 PM 13.8°F-10.1°C -4.5°F-20.3°C 43% 0.4 mph ENE0.6 kmh ENE 2.2 mph3.5 kmh 30.25 in1024.4 mb 0.00 in0.0 mm 0.00 in/hr0.0 mm/hr 0.00 in0.0 mm
03:45 PM 16.0°F-8.9°C -2.0°F-18.9°C 44% Calm Calm 1.6 mph2.6 kmh 30.24 in1024.0 mb 0.00 in0.0 mm 0.00 in/hr0.0 mm/hr 0.00 in0.0 mm
04:00 PM 18.0°F-7.8°C -0.7°F-18.2°C 43% Calm Calm 1.6 mph2.6 kmh 30.23 in1023.7 mb 0.00 in0.0 mm 0.00 in/hr0.0 mm/hr 0.00 in0.0 mm
04:15 PM 14.2°F-9.9°C -4.1°F-20.1°C 43% Calm Calm 2.2 mph3.5 kmh 30.24 in1024.0 mb 0.00 in0.0 mm 0.00 in/hr0.0 mm/hr 0.00 in0.0 mm
04:30 PM 9.1°F-12.7°C -6.9°F-21.6°C 47% Calm Calm 1.6 mph2.6 kmh 30.25 in1024.4 mb 0.00 in0.0 mm 0.00 in/hr0.0 mm/hr 0.00 in0.0 mm
04:45 PM 6.4°F-14.2°C -8.1°F-22.3°C 50% 0.1 mph SW0.2 kmh SW 1.6 mph2.6 kmh 30.26 in1024.7 mb 0.00 in0.0 mm 0.00 in/hr0.0 mm/hr 0.00 in0.0 mm
05:00 PM 4.1°F-15.5°C -8.4°F-22.4°C 55% 0.1 mph SW0.2 kmh SW 3.1 mph5.0 kmh 30.27 in1025.1 mb 0.00 in0.0 mm 0.00 in/hr0.0 mm/hr 0.00 in0.0 mm
05:15 PM 2.5°F-16.4°C -8.8°F-22.7°C 58% Calm Calm -- 30.28 in1025.4 mb 0.00 in0.0 mm 0.00 in/hr0.0 mm/hr 0.00 in0.0 mm
05:30 PM 0.3°F-17.6°C -9.2°F-22.9°C 63% Calm Calm -- 30.30 in1026.1 mb 0.00 in0.0 mm 0.00 in/hr0.0 mm/hr 0.00 in0.0 mm
05:45 PM -0.6°F-18.1°C -8.2°F-22.3°C 69% Calm Calm -- 30.30 in1026.1 mb 0.00 in0.0 mm 0.00 in/hr0.0 mm/hr 0.00 in0.0 mm
06:00 PM -0.9°F-18.3°C -6.8°F-21.6°C 75% 0.2 mph NE0.3 kmh NE 2.2 mph3.5 kmh 30.31 in1026.4 mb 0.00 in0.0 mm 0.00 in/hr0.0 mm/hr 0.00 in0.0 mm
06:15 PM -1.5°F-18.6°C -6.8°F-21.6°C 77% 0.3 mph NE0.5 kmh NE 3.1 mph5.0 kmh 30.31 in1026.4 mb 0.00 in0.0 mm 0.00 in/hr0.0 mm/hr 0.00 in0.0 mm
06:30 PM -2.9°F-19.4°C -8.5°F-22.5°C 76% Calm Calm -- 30.32 in1026.8 mb 0.00 in0.0 mm 0.00 in/hr0.0 mm/hr 0.00 in0.0 mm
06:45 PM -3.6°F-19.8°C -8.9°F-22.7°C 77% 0.2 mph NE0.3 kmh NE 3.1 mph5.0 kmh 30.32 in1026.8 mb 0.00 in0.0 mm 0.00 in/hr0.0 mm/hr 0.00 in0.0 mm
07:00 PM -3.5°F-19.7°C -8.5°F-22.5°C 78% 2.4 mph NE3.9 kmh NE 6.0 mph9.7 kmh 30.32 in1026.8 mb 0.00 in0.0 mm 0.00 in/hr0.0 mm/hr 0.00 in0.0 mm
07:15 PM -2.4°F-19.1°C -7.4°F-21.9°C 78% 1.6 mph NE2.6 kmh NE 6.0 mph9.7 kmh 30.31 in1026.4 mb 0.00 in0.0 mm 0.00 in/hr0.0 mm/hr 0.00 in0.0 mm
07:30 PM -3.8°F-19.9°C -9.1°F-22.8°C 77% 0.4 mph ENE0.6 kmh ENE 3.1 mph5.0 kmh 30.31 in1026.4 mb 0.00 in0.0 mm 0.00 in/hr0.0 mm/hr 0.00 in0.0 mm
07:45 PM -4.7°F-20.4°C -9.9°F-23.3°C 77% 0.4 mph N0.6 kmh N 3.1 mph5.0 kmh 30.31 in1026.4 mb 0.00 in0.0 mm 0.00 in/hr0.0 mm/hr 0.00 in0.0 mm
08:00 PM -5.1°F-20.6°C -10.0°F-23.3°C 78% 0.3 mph N0.5 kmh N 5.4 mph8.7 kmh 30.31 in1026.4 mb 0.00 in0.0 mm 0.00 in/hr0.0 mm/hr 0.00 in0.0 mm
08:15 PM -3.6°F-19.8°C -8.1°F-22.3°C 80% 0.6 mph NE1.0 kmh NE 3.1 mph5.0 kmh 30.30 in1026.1 mb 0.00 in0.0 mm 0.00 in/hr0.0 mm/hr 0.00 in0.0 mm
08:30 PM -3.3°F-19.6°C -7.5°F-21.9°C 81% 2.1 mph NE3.4 kmh NE 6.9 mph11.1 kmh 30.30 in1026.1 mb 0.00 in0.0 mm 0.00 in/hr0.0 mm/hr 0.00 in0.0 mm
08:45 PM -3.1°F-19.5°C -7.3°F-21.8°C 81% 0.5 mph NE0.8 kmh NE 3.8 mph6.1 kmh 30.30 in1026.1 mb 0.00 in0.0 mm 0.00 in/hr0.0 mm/hr 0.00 in0.0 mm
09:00 PM -3.8°F-19.9°C -8.3°F-22.4°C 80% Calm Calm 1.6 mph2.6 kmh 30.31 in1026.4 mb 0.00 in0.0 mm 0.00 in/hr0.0 mm/hr 0.00 in0.0 mm
09:15 PM -6.7°F-21.5°C -11.3°F-24.1°C 79% Calm Calm -- 30.32 in1026.8 mb 0.00 in0.0 mm 0.00 in/hr0.0 mm/hr 0.00 in0.0 mm
09:30 PM -7.6°F-22.0°C -12.0°F-24.4°C 80% Calm Calm -- 30.32 in1026.8 mb 0.00 in0.0 mm 0.00 in/hr0.0 mm/hr 0.00 in0.0 mm
09:45 PM -6.9°F-21.6°C -11.0°F-23.9°C 81% Calm Calm 0.7 mph1.1 kmh 30.32 in1026.8 mb 0.00 in0.0 mm 0.00 in/hr0.0 mm/hr 0.00 in0.0 mm
10:00 PM -7.6°F-22.0°C -11.5°F-24.2°C 82% Calm Calm -- 30.32 in1026.8 mb 0.00 in0.0 mm 0.00 in/hr0.0 mm/hr 0.00 in0.0 mm
10:15 PM -7.6°F-22.0°C -11.2°F-24.0°C 83% Calm Calm -- 30.32 in1026.8 mb 0.00 in0.0 mm 0.00 in/hr0.0 mm/hr 0.00 in0.0 mm
10:30 PM -6.5°F-21.4°C -9.7°F-23.2°C 85% Calm Calm 1.6 mph2.6 kmh 30.32 in1026.8 mb 0.00 in0.0 mm 0.00 in/hr0.0 mm/hr 0.00 in0.0 mm
10:45 PM -7.4°F-21.9°C -10.6°F-23.7°C 85% Calm Calm -- 30.32 in1026.8 mb 0.00 in0.0 mm 0.00 in/hr0.0 mm/hr 0.00 in0.0 mm
11:00 PM -6.5°F-21.4°C -9.7°F-23.2°C 85% Calm Calm 0.7 mph1.1 kmh 30.32 in1026.8 mb 0.00 in0.0 mm 0.00 in/hr0.0 mm/hr 0.00 in0.0 mm
11:15 PM -3.8°F-19.9°C -6.3°F-21.3°C 88% 0.8 mph NE1.3 kmh NE 3.8 mph6.1 kmh 30.32 in1026.8 mb 0.00 in0.0 mm 0.00 in/hr0.0 mm/hr 0.00 in0.0 mm
11:30 PM -1.5°F-18.6°C -4.0°F-20.0°C 88% 1.1 mph NE1.8 kmh NE 3.8 mph6.1 kmh 30.31 in1026.4 mb 0.00 in0.0 mm 0.00 in/hr0.0 mm/hr 0.00 in0.0 mm
11:45 PM -0.4°F-18.0°C -3.2°F-19.6°C 87% 1.6 mph NE2.6 kmh NE 5.4 mph8.7 kmh 30.31 in1026.4 mb 0.00 in0.0 mm 0.00 in/hr0.0 mm/hr 0.00 in0.0 mm